KSPG/SPG METAR and TAF weather

Enter ICAO airport designator
Station Type Date Time Source
KSPG METAR 2018/12/13 06:53 UTC NOAA

KSPG 130653Z AUTO 07009KT 10SM OVC060 16/11 A3016 RMK AO2 SLP213 T01610111


Station Type Date Time Source
KSPG Decoded METAR 2018/12/13 06:53 UTC NOAA

ST PETERSBURG WHITTED AIRPORT , FL, United States (KSPG) 27-46N 082-38W 2M
Dec 13, 2018 - 01:53 AM EST / 2018.12.13 0653 UTC
Wind: from the ENE (070 degrees) at 10 MPH (9 KT):0
Visibility: 10 mile(s):0
Sky conditions: overcast
Temperature: 61.0 F (16.1 C)
Dew Point: 52.0 F (11.1 C)
Relative Humidity: 72%
Pressure (altimeter): 30.16 in. Hg (1021 hPa)
ob: KSPG 130653Z AUTO 07009KT 10SM OVC060 16/11 A3016 RMK AO2 SLP213 T01610111
cycle: 7

Station Type Date Time Source
KSPG TAF UTC NOAA

Error!


Example: see airport list